Time;durP1;ratioP1;P1;durP2;ratioP2;P2;SDS_P1;SDS_P2;PMS_P1;PMS_P2;Temp;Humidity;BMP_temperature;BMP_pressure;BME280_temperature;BME280_humidity;BME280_pressure;Samples;Min_cycle;Max_cycle;Signal;HPM_P1;HPM_P2
2024/01/18 00:00:46;;;;;;;11.70;6.30;;;;;;;;;;10338667;23;20020;-92
2024/01/18 00:05:09;;;;;;;12.70;5.50;;;;;;;;;;10338615;23;20047;-89
2024/01/18 00:09:12;;;;;;;14.50;5.68;;;;;;;;;;10312617;23;20028;-93
2024/01/18 00:50:44;;;;;;;7.93;4.75;;;;;;;;;;10388470;22;20505;-90
2024/01/18 00:54:49;;;;;;;9.27;5.05;;;;;;;;;;10405548;22;20015;-90
2024/01/18 00:58:52;;;;;;;10.13;5.25;;;;;;;;;;10361658;22;20085;-90
2024/01/18 01:02:56;;;;;;;9.30;4.90;;;;;;;;;;10361365;22;20028;-90
2024/01/18 01:07:01;;;;;;;10.43;5.18;;;;;;;;;;10361657;22;20019;-90
2024/01/18 01:11:08;;;;;;;10.65;4.75;;;;;;;;;;10361764;22;20039;-91
2024/01/18 01:15:11;;;;;;;11.90;5.85;;;;;;;;;;10361225;22;20028;-90
2024/01/18 01:19:15;;;;;;;10.40;5.13;;;;;;;;;;10360904;22;20024;-91
2024/01/18 01:23:21;;;;;;;9.40;5.20;;;;;;;;;;10361212;22;20097;-90
2024/01/18 01:27:24;;;;;;;12.82;5.30;;;;;;;;;;10361580;22;20711;-90
2024/01/18 01:31:27;;;;;;;9.52;4.88;;;;;;;;;;10360917;22;20020;-90
2024/01/18 01:35:31;;;;;;;11.95;5.50;;;;;;;;;;10360925;22;20518;-91
2024/01/18 01:39:36;;;;;;;9.27;5.03;;;;;;;;;;10361318;22;20024;-91
2024/01/18 01:43:56;;;;;;;13.07;5.80;;;;;;;;;;10360436;22;20099;-91
2024/01/18 01:48:00;;;;;;;11.93;5.75;;;;;;;;;;10360923;22;20575;-90
2024/01/18 01:52:04;;;;;;;9.98;5.40;;;;;;;;;;10361123;22;20085;-91
2024/01/18 01:56:14;;;;;;;14.48;5.10;;;;;;;;;;10388118;22;20382;-91
2024/01/18 02:00:23;;;;;;;9.48;4.75;;;;;;;;;;10405185;22;20027;-90
2024/01/18 02:04:27;;;;;;;12.48;5.15;;;;;;;;;;10388303;22;20011;-91
2024/01/18 02:08:33;;;;;;;9.93;5.03;;;;;;;;;;10388270;22;20031;-91
2024/01/18 02:12:38;;;;;;;9.38;5.10;;;;;;;;;;10349561;22;20520;-90
2024/01/18 02:16:41;;;;;;;10.13;4.95;;;;;;;;;;10310313;23;20027;-91
2024/01/18 02:20:44;;;;;;;10.63;5.53;;;;;;;;;;10337007;23;20028;-92
2024/01/18 02:24:51;;;;;;;10.85;5.53;;;;;;;;;;10339157;22;20355;-92
2024/01/18 02:28:57;;;;;;;9.18;4.88;;;;;;;;;;10337107;23;20103;-91
2024/01/18 02:33:02;;;;;;;10.75;5.38;;;;;;;;;;10340259;23;20348;-90
2024/01/18 02:37:05;;;;;;;11.15;5.68;;;;;;;;;;10340883;22;20016;-90
2024/01/18 02:41:08;;;;;;;14.20;5.50;;;;;;;;;;10357103;23;20090;-91
2024/01/18 02:45:14;;;;;;;9.50;5.07;;;;;;;;;;10314069;23;20103;-90
2024/01/18 02:49:17;;;;;;;10.13;5.28;;;;;;;;;;10340657;23;20440;-90
2024/01/18 02:53:23;;;;;;;12.07;5.45;;;;;;;;;;10312740;23;20449;-91
2024/01/18 02:57:25;;;;;;;12.82;6.03;;;;;;;;;;10313005;23;20395;-90
2024/01/18 03:01:32;;;;;;;12.38;5.72;;;;;;;;;;10340320;23;20171;-91
2024/01/18 03:05:43;;;;;;;14.57;5.78;;;;;;;;;;10356393;23;20026;-90
2024/01/18 03:09:55;;;;;;;11.18;6.20;;;;;;;;;;10339671;23;20077;-91
2024/01/18 03:14:15;;;;;;;13.77;5.80;;;;;;;;;;10356670;23;20012;-91
2024/01/18 03:54:17;;;;;;;17.80;7.10;;;;;;;;;;10288466;23;20074;-91
2024/01/18 05:09:00;;;;;;;24.90;12.60;;;;;;;;;;10278188;22;20024;-91
2024/01/18 05:22:29;;;;;;;29.17;13.50;;;;;;;;;;10289446;23;20044;-90
2024/01/18 05:40:53;;;;;;;27.80;13.50;;;;;;;;;;10294990;22;20025;-91
2024/01/18 05:44:56;;;;;;;31.75;14.98;;;;;;;;;;10332945;23;20056;-90
2024/01/18 05:48:59;;;;;;;35.70;16.20;;;;;;;;;;10341736;23;20028;-91
2024/01/18 06:08:06;;;;;;;39.60;21.73;;;;;;;;;;10341140;23;20022;-90
2024/01/18 06:12:09;;;;;;;72.65;41.15;;;;;;;;;;10357871;23;20383;-90
2024/01/18 06:20:22;;;;;;;32.35;16.83;;;;;;;;;;10344998;22;20484;-88
2024/01/18 06:24:28;;;;;;;26.02;13.32;;;;;;;;;;10340265;23;20389;-91
2024/01/18 06:28:31;;;;;;;32.22;15.98;;;;;;;;;;10358443;23;20023;-95
2024/01/18 06:32:43;;;;;;;29.55;15.23;;;;;;;;;;10244882;23;20026;-93
2024/01/18 06:36:48;;;;;;;30.67;15.25;;;;;;;;;;10341560;23;20020;-93
2024/01/18 06:40:54;;;;;;;27.83;14.43;;;;;;;;;;10357828;23;20047;-91
2024/01/18 06:44:56;;;;;;;28.45;14.70;;;;;;;;;;10340790;23;20091;-91
2024/01/18 06:49:00;;;;;;;28.98;14.65;;;;;;;;;;10340884;23;20035;-92
2024/01/18 06:53:31;;;;;;;37.53;19.75;;;;;;;;;;10340693;23;20023;-92
2024/01/18 06:57:36;;;;;;;55.30;23.88;;;;;;;;;;10340634;23;20026;-91
2024/01/18 07:01:39;;;;;;;45.30;20.17;;;;;;;;;;10340470;23;20016;-93
2024/01/18 07:05:42;;;;;;;52.05;23.25;;;;;;;;;;10314054;23;20024;-93
2024/01/18 07:09:45;;;;;;;60.90;26.98;;;;;;;;;;10340467;23;20023;-90
2024/01/18 07:13:51;;;;;;;62.78;28.30;;;;;;;;;;10313793;23;20329;-93
2024/01/18 07:17:54;;;;;;;63.63;27.38;;;;;;;;;;10357033;23;20016;-91
2024/01/18 07:21:57;;;;;;;67.28;27.50;;;;;;;;;;10339988;23;20059;-91
2024/01/18 07:26:00;;;;;;;62.45;27.90;;;;;;;;;;10340328;23;20024;-93
2024/01/18 07:30:06;;;;;;;85.18;23.70;;;;;;;;;;10340320;23;20023;-92
2024/01/18 07:34:18;;;;;;;58.97;22.13;;;;;;;;;;10357928;23;20054;-90
2024/01/18 07:38:21;;;;;;;67.40;23.10;;;;;;;;;;10340162;23;20456;-90
2024/01/18 07:42:28;;;;;;;54.75;22.85;;;;;;;;;;10340328;23;20082;-91
2024/01/18 07:46:33;;;;;;;44.67;20.83;;;;;;;;;;10356503;23;20043;-91
2024/01/18 07:50:37;;;;;;;51.53;22.77;;;;;;;;;;10339981;23;20016;-90
2024/01/18 07:58:50;;;;;;;54.70;23.50;;;;;;;;;;10339541;22;20044;-91
2024/01/18 08:02:55;;;;;;;51.38;22.65;;;;;;;;;;10287907;23;20394;-90
2024/01/18 08:06:58;;;;;;;69.80;27.00;;;;;;;;;;10312316;23;20024;-90
2024/01/18 08:11:00;;;;;;;72.53;30.55;;;;;;;;;;10312840;23;20073;-92
2024/01/18 08:45:25;;;;;;;95.70;26.30;;;;;;;;;;10346341;22;20043;-89
2024/01/18 08:49:55;;;;;;;80.28;25.58;;;;;;;;;;10355280;23;20070;-89
2024/01/18 08:53:58;;;;;;;51.03;22.70;;;;;;;;;;10347128;23;20039;-91
2024/01/18 08:58:32;;;;;;;40.83;19.00;;;;;;;;;;10342463;23;20020;-90
2024/01/18 09:02:37;;;;;;;44.60;19.25;;;;;;;;;;10340245;23;20337;-93
2024/01/18 09:22:24;;;;;;;41.88;18.50;;;;;;;;;;10313064;23;20020;-93
2024/01/18 09:26:27;;;;;;;37.35;17.67;;;;;;;;;;10339628;23;20043;-92
2024/01/18 09:30:30;;;;;;;39.47;17.35;;;;;;;;;;10339009;23;20020;-94
2024/01/18 09:34:33;;;;;;;39.80;16.05;;;;;;;;;;10340835;23;20012;-95
2024/01/18 09:38:38;;;;;;;59.85;23.38;;;;;;;;;;10340166;23;20071;-94
2024/01/18 09:42:46;;;;;;;42.55;18.27;;;;;;;;;;10339723;23;20020;-94
2024/01/18 09:46:50;;;;;;;37.42;16.75;;;;;;;;;;10368843;22;20334;-95
2024/01/18 09:50:57;;;;;;;35.03;14.80;;;;;;;;;;10390417;22;20046;-89
2024/01/18 09:55:02;;;;;;;36.90;16.60;;;;;;;;;;10363481;22;20020;-94
2024/01/18 09:59:06;;;;;;;49.08;18.35;;;;;;;;;;10391226;22;20459;-95
2024/01/18 10:03:14;;;;;;;44.72;20.23;;;;;;;;;;10388472;22;20026;-91
2024/01/18 10:07:17;;;;;;;56.25;23.05;;;;;;;;;;10407856;22;20027;-95
2024/01/18 10:11:22;;;;;;;57.15;23.23;;;;;;;;;;10390757;22;20103;-92
2024/01/18 10:15:33;;;;;;;59.42;25.52;;;;;;;;;;10387803;22;20026;-93
2024/01/18 10:19:45;;;;;;;59.60;24.10;;;;;;;;;;10406731;22;20016;-90
2024/01/18 10:29:59;;;;;;;40.95;17.33;;;;;;;;;;10079764;23;20033;-90
2024/01/18 10:34:05;;;;;;;37.72;16.38;;;;;;;;;;10221107;22;20028;-93
2024/01/18 10:38:08;;;;;;;42.17;18.73;;;;;;;;;;10363583;22;20019;-93
2024/01/18 10:42:13;;;;;;;43.40;19.13;;;;;;;;;;10390219;22;20012;-94
2024/01/18 10:46:32;;;;;;;42.35;19.60;;;;;;;;;;10401477;22;20056;-93
2024/01/18 10:50:38;;;;;;;45.42;20.55;;;;;;;;;;10389796;22;20015;-93
2024/01/18 10:54:41;;;;;;;54.30;21.83;;;;;;;;;;10408959;22;20020;-93
2024/01/18 10:58:44;;;;;;;55.15;22.25;;;;;;;;;;10391381;22;20027;-92
2024/01/18 11:02:47;;;;;;;53.53;21.90;;;;;;;;;;10392097;22;20466;-93
2024/01/18 11:06:53;;;;;;;54.28;22.10;;;;;;;;;;10392199;22;20024;-93
2024/01/18 11:10:55;;;;;;;52.63;23.45;;;;;;;;;;10392328;22;20011;-94
2024/01/18 11:14:59;;;;;;;53.55;23.00;;;;;;;;;;10391785;22;20388;-92
2024/01/18 11:19:02;;;;;;;56.97;22.35;;;;;;;;;;10393562;22;20042;-92
2024/01/18 11:23:07;;;;;;;51.30;23.38;;;;;;;;;;10403723;22;20015;-94
2024/01/18 11:27:19;;;;;;;45.20;19.42;;;;;;;;;;10394117;22;20023;-89
2024/01/18 11:31:46;;;;;;;59.45;23.73;;;;;;;;;;10391879;22;20452;-94
2024/01/18 11:35:50;;;;;;;52.00;22.77;;;;;;;;;;10410109;22;20340;-92
2024/01/18 11:39:59;;;;;;;62.65;24.42;;;;;;;;;;10392287;22;20087;-93
2024/01/18 11:44:11;;;;;;;62.25;25.33;;;;;;;;;;10391621;22;20484;-92
2024/01/18 11:48:17;;;;;;;61.78;25.48;;;;;;;;;;10391971;22;20024;-95
2024/01/18 11:52:23;;;;;;;65.80;26.08;;;;;;;;;;10409067;22;20023;-93
2024/01/18 11:56:28;;;;;;;58.70;27.00;;;;;;;;;;10408479;22;20046;-92
2024/01/18 12:00:31;;;;;;;54.67;23.90;;;;;;;;;;10391930;22;20424;-94
2024/01/18 12:04:41;;;;;;;53.85;24.67;;;;;;;;;;10391478;22;20023;-90
2024/01/18 12:08:46;;;;;;;49.63;22.38;;;;;;;;;;10365295;22;20348;-93
2024/01/18 12:12:51;;;;;;;52.83;21.75;;;;;;;;;;10392779;22;20352;-93
2024/01/18 12:16:54;;;;;;;91.47;32.33;;;;;;;;;;10391959;22;20039;-92
2024/01/18 12:25:21;;;;;;;50.72;21.88;;;;;;;;;;10408073;22;20020;-92
2024/01/18 12:29:26;;;;;;;54.70;23.75;;;;;;;;;;10391688;22;20016;-94
2024/01/18 12:33:31;;;;;;;65.07;26.08;;;;;;;;;;10391224;22;20340;-93
2024/01/18 12:37:34;;;;;;;60.03;25.70;;;;;;;;;;10406833;22;20022;-93
2024/01/18 12:41:38;;;;;;;61.40;26.40;;;;;;;;;;10392655;22;20023;-91
2024/01/18 12:45:43;;;;;;;65.53;26.13;;;;;;;;;;10389797;22;20647;-89
2024/01/18 12:49:46;;;;;;;66.82;29.25;;;;;;;;;;10361664;22;20189;-90
2024/01/18 12:53:50;;;;;;;64.13;27.77;;;;;;;;;;10389592;22;20070;-91
2024/01/18 12:57:58;;;;;;;60.30;26.17;;;;;;;;;;10407415;22;20023;-92
2024/01/18 13:02:02;;;;;;;60.08;26.45;;;;;;;;;;10390400;22;20073;-94
2024/01/18 13:06:07;;;;;;;77.85;27.80;;;;;;;;;;10390621;22;20023;-94
2024/01/18 13:10:13;;;;;;;73.25;30.35;;;;;;;;;;10391434;22;20042;-95
2024/01/18 13:14:16;;;;;;;67.00;27.00;;;;;;;;;;10414975;22;20019;-94
2024/01/18 13:18:21;;;;;;;68.57;28.48;;;;;;;;;;10364832;22;20348;-90
2024/01/18 13:22:25;;;;;;;55.88;23.38;;;;;;;;;;10391507;22;20019;-95
2024/01/18 13:26:28;;;;;;;71.18;27.23;;;;;;;;;;10391753;22;20030;-94
2024/01/18 13:30:31;;;;;;;69.10;28.65;;;;;;;;;;10392287;22;20055;-95
2024/01/18 13:35:08;;;;;;;67.00;27.33;;;;;;;;;;10391337;22;20028;-90
2024/01/18 13:57:01;;;;;;;72.05;29.10;;;;;;;;;;10361942;22;20103;-93
2024/01/18 14:01:04;;;;;;;77.07;30.17;;;;;;;;;;10389258;22;20066;-93
2024/01/18 14:05:13;;;;;;;71.20;26.42;;;;;;;;;;10389631;22;20023;-94
2024/01/18 14:09:17;;;;;;;76.07;27.70;;;;;;;;;;10362433;22;20020;-91
2024/01/18 14:13:22;;;;;;;81.88;31.83;;;;;;;;;;10389379;22;20016;-90
2024/01/18 14:17:24;;;;;;;80.78;29.95;;;;;;;;;;10389578;22;20015;-95
2024/01/18 14:21:28;;;;;;;77.30;29.95;;;;;;;;;;10389642;22;20027;-90
2024/01/18 14:25:34;;;;;;;83.38;31.63;;;;;;;;;;10390031;22;20020;-91
2024/01/18 14:29:57;;;;;;;65.30;25.48;;;;;;;;;;10393535;22;20055;-92
2024/01/18 14:34:21;;;;;;;79.18;29.42;;;;;;;;;;10409834;22;20448;-88
2024/01/18 14:38:25;;;;;;;64.35;24.45;;;;;;;;;;10365143;22;20352;-92
2024/01/18 14:42:27;;;;;;;78.35;28.30;;;;;;;;;;10392275;22;20020;-92
2024/01/18 14:46:32;;;;;;;81.28;31.88;;;;;;;;;;10392304;22;20390;-90
2024/01/18 14:50:35;;;;;;;71.68;27.20;;;;;;;;;;10394495;22;20046;-90
2024/01/18 14:54:41;;;;;;;82.75;29.20;;;;;;;;;;10391876;22;20093;-93
2024/01/18 14:58:45;;;;;;;81.28;30.80;;;;;;;;;;10365787;22;20031;-94
2024/01/18 15:02:52;;;;;;;99.00;33.72;;;;;;;;;;10392789;22;20019;-91
2024/01/18 15:06:55;;;;;;;75.25;30.60;;;;;;;;;;10409860;22;20019;-92
2024/01/18 15:10:58;;;;;;;88.45;27.65;;;;;;;;;;10392442;22;20137;-95
2024/01/18 15:15:02;;;;;;;68.78;25.77;;;;;;;;;;10392558;22;20314;-92
2024/01/18 15:19:10;;;;;;;53.92;21.40;;;;;;;;;;10409214;22;20095;-93
2024/01/18 15:23:13;;;;;;;57.45;19.83;;;;;;;;;;10392096;22;20019;-94
2024/01/18 15:38:24;;;;;;;36.78;14.73;;;;;;;;;;10389111;22;20034;-93
2024/01/18 15:42:47;;;;;;;63.30;22.77;;;;;;;;;;10390692;22;20399;-94
2024/01/18 15:46:54;;;;;;;57.50;20.45;;;;;;;;;;10390837;22;20024;-92
2024/01/18 15:51:02;;;;;;;57.75;21.40;;;;;;;;;;10391870;22;20026;-95
2024/01/18 15:55:09;;;;;;;66.85;22.20;;;;;;;;;;10367244;22;20051;-88
2024/01/18 15:59:13;;;;;;;46.72;18.42;;;;;;;;;;10394039;22;20019;-96
2024/01/18 16:03:17;;;;;;;74.32;27.90;;;;;;;;;;10394570;22;20020;-95
2024/01/18 16:07:26;;;;;;;81.85;27.55;;;;;;;;;;10395149;22;20336;-90
2024/01/18 16:11:29;;;;;;;71.50;24.65;;;;;;;;;;10401335;22;20466;-93
2024/01/18 16:15:33;;;;;;;67.53;23.92;;;;;;;;;;10375014;22;20023;-94
2024/01/18 16:19:36;;;;;;;71.78;25.17;;;;;;;;;;10396623;22;20086;-91
2024/01/18 16:23:39;;;;;;;89.75;25.92;;;;;;;;;;10393493;22;20099;-94
2024/01/18 16:27:42;;;;;;;85.10;26.10;;;;;;;;;;10393382;22;20022;-93
2024/01/18 16:31:46;;;;;;;85.60;28.70;;;;;;;;;;10394494;22;20026;-92
2024/01/18 16:35:49;;;;;;;85.38;29.92;;;;;;;;;;10395270;22;20115;-95
2024/01/18 16:39:53;;;;;;;63.15;23.65;;;;;;;;;;10398201;22;20026;-92
2024/01/18 16:43:56;;;;;;;55.70;23.75;;;;;;;;;;10372283;22;20019;-92
2024/01/18 16:48:01;;;;;;;67.82;27.08;;;;;;;;;;10415960;22;20016;-91
2024/01/18 16:52:07;;;;;;;62.10;26.40;;;;;;;;;;10415115;22;20031;-90
2024/01/18 16:56:11;;;;;;;64.03;27.13;;;;;;;;;;10395032;22;20016;-91
2024/01/18 17:00:16;;;;;;;73.15;28.15;;;;;;;;;;10395365;22;20023;-90
2024/01/18 17:04:23;;;;;;;44.35;20.42;;;;;;;;;;10398522;22;20069;-88
2024/01/18 17:08:34;;;;;;;66.60;25.48;;;;;;;;;;10419905;22;20027;-89
2024/01/18 17:12:37;;;;;;;75.32;31.25;;;;;;;;;;10436774;22;20020;-88
2024/01/18 17:16:42;;;;;;;64.68;27.33;;;;;;;;;;10440847;22;20067;-89
2024/01/18 17:20:52;;;;;;;63.00;27.80;;;;;;;;;;10416627;22;20058;-88
2024/01/18 17:24:55;;;;;;;72.93;27.75;;;;;;;;;;10442545;22;20042;-93
2024/01/18 17:29:01;;;;;;;89.35;34.13;;;;;;;;;;10425535;22;20023;-94
2024/01/18 17:33:05;;;;;;;92.25;36.65;;;;;;;;;;10444247;22;20003;-88
2024/01/18 17:37:24;;;;;;;72.38;28.65;;;;;;;;;;10403040;22;20038;-95
2024/01/18 17:55:26;;;;;;;61.42;26.73;;;;;;;;;;10314706;23;20028;-93
2024/01/18 17:59:48;;;;;;;51.90;23.05;;;;;;;;;;10165002;23;20025;-96
2024/01/18 18:03:53;;;;;;;41.67;18.08;;;;;;;;;;10148934;23;20467;-91
2024/01/18 18:08:13;;;;;;;61.00;27.42;;;;;;;;;;10088024;23;20456;-92
2024/01/18 18:18:22;;;;;;;65.78;25.63;;;;;;;;;;10033335;23;20033;-92
2024/01/18 18:28:04;;;;;;;61.80;26.92;;;;;;;;;;9927645;24;20020;-90
2024/01/18 18:32:33;;;;;;;59.08;23.30;;;;;;;;;;10013318;23;20463;-88
2024/01/18 18:36:43;;;;;;;66.93;26.35;;;;;;;;;;10161031;23;20026;-91
2024/01/18 18:55:43;;;;;;;51.13;23.80;;;;;;;;;;10123682;22;20031;-92
2024/01/18 18:59:54;;;;;;;48.75;22.60;;;;;;;;;;10368878;23;20258;-89
2024/01/18 19:03:58;;;;;;;48.65;21.08;;;;;;;;;;10369183;23;20020;-87
2024/01/18 19:08:09;;;;;;;53.55;21.60;;;;;;;;;;10352908;23;20020;-91
2024/01/18 19:12:16;;;;;;;54.13;23.05;;;;;;;;;;10356553;23;20024;-94
2024/01/18 19:20:44;;;;;;;67.13;26.38;;;;;;;;;;10377854;23;20020;-92
2024/01/18 19:24:58;;;;;;;74.45;28.92;;;;;;;;;;10359211;23;20016;-93
2024/01/18 19:29:09;;;;;;;71.47;30.33;;;;;;;;;;10373890;23;20020;-94
2024/01/18 19:33:19;;;;;;;79.40;31.83;;;;;;;;;;10372572;23;20035;-89
2024/01/18 19:37:31;;;;;;;85.18;33.83;;;;;;;;;;10371088;23;20042;-93
2024/01/18 19:41:37;;;;;;;79.15;32.40;;;;;;;;;;10352271;23;20016;-93
2024/01/18 19:45:45;;;;;;;67.65;29.00;;;;;;;;;;10364815;23;20031;-95
2024/01/18 19:49:48;;;;;;;78.88;33.97;;;;;;;;;;10345808;23;20035;-94
2024/01/18 19:58:56;;;;;;;71.00;29.67;;;;;;;;;;10346862;23;20055;-95
2024/01/18 20:03:01;;;;;;;77.82;31.95;;;;;;;;;;10346121;23;20027;-94
2024/01/18 20:07:07;;;;;;;70.03;31.70;;;;;;;;;;10367045;23;20043;-93
2024/01/18 20:11:13;;;;;;;63.95;31.38;;;;;;;;;;10348374;23;20024;-88
2024/01/18 20:15:16;;;;;;;64.63;29.35;;;;;;;;;;10362718;23;20059;-91
2024/01/18 20:19:22;;;;;;;80.95;30.67;;;;;;;;;;10347127;23;20043;-90
2024/01/18 20:23:28;;;;;;;63.88;29.17;;;;;;;;;;10368357;23;20016;-92
2024/01/18 20:27:46;;;;;;;62.35;27.92;;;;;;;;;;10370777;23;20012;-90
2024/01/18 20:31:53;;;;;;;68.32;27.27;;;;;;;;;;10372111;23;20119;-88
2024/01/18 20:35:59;;;;;;;59.70;26.17;;;;;;;;;;10353155;23;20043;-88
2024/01/18 20:40:09;;;;;;;66.70;31.25;;;;;;;;;;10332327;23;20530;-89
2024/01/18 20:45:01;;;;;;;65.43;26.95;;;;;;;;;;10352186;23;20016;-89
2024/01/18 20:49:06;;;;;;;70.38;29.58;;;;;;;;;;10331194;23;20024;-88
2024/01/18 22:11:30;;;;;;;60.97;25.38;;;;;;;;;;10346644;22;20024;-90
2024/01/18 22:15:33;;;;;;;55.00;23.85;;;;;;;;;;10392753;22;20015;-89
2024/01/18 22:19:39;;;;;;;60.38;25.45;;;;;;;;;;10390040;22;20039;-89
2024/01/18 22:23:42;;;;;;;60.13;25.65;;;;;;;;;;10363071;22;20019;-88
2024/01/18 22:40:18;;;;;;;43.85;19.10;;;;;;;;;;10327628;22;20052;-90
2024/01/18 22:44:21;;;;;;;57.13;22.23;;;;;;;;;;10341738;23;20514;-89
2024/01/18 22:48:25;;;;;;;49.67;22.50;;;;;;;;;;10343071;23;20030;-89
2024/01/18 22:52:30;;;;;;;45.95;20.08;;;;;;;;;;10291085;23;20400;-88
2024/01/18 23:55:46;;;;;;;62.92;23.80;;;;;;;;;;10341391;22;20129;-89
2024/01/18 23:59:50;;;;;;;51.88;21.55;;;;;;;;;;10340041;23;20364;-88
